Time;durP1;ratioP1;P1;durP2;ratioP2;P2;SDS_P1;SDS_P2;PMS_P1;PMS_P2;Temp;Humidity;BMP_temperature;BMP_pressure;BME280_temperature;BME280_humidity;BME280_pressure;Samples;Min_cycle;Max_cycle;Signal;HPM_P1;HPM_P2
2022/05/05 00:01:42;;;;;;;4.75;1.63;;;;;;;3.74;50.87;100352.47;4974732;28;20047;-79
2022/05/05 00:04:09;;;;;;;8.20;1.38;;;;;;;3.75;51.94;100353.34;4974302;28;20561;-79
2022/05/05 00:06:36;;;;;;;2.90;1.48;;;;;;;3.88;51.71;100380.28;4957320;28;20126;-78
2022/05/05 00:09:03;;;;;;;2.70;1.73;;;;;;;3.74;51.92;100364.47;4959309;28;20149;-77
2022/05/05 00:14:24;;;;;;;3.15;1.63;;;;;;;3.63;51.51;100360.72;4975054;28;20103;-77
2022/05/05 00:16:56;;;;;;;1.80;1.60;;;;;;;3.73;51.95;100385.88;4941037;28;20462;-78
2022/05/05 00:19:22;;;;;;;2.65;1.88;;;;;;;3.71;52.32;100393.56;4981626;28;20046;-78
2022/05/05 00:21:47;;;;;;;4.05;1.67;;;;;;;3.30;52.31;100323.78;4951757;28;20035;-77
2022/05/05 00:24:16;;;;;;;2.47;1.40;;;;;;;3.72;51.98;100399.56;4979658;28;20129;-77
2022/05/05 00:26:42;;;;;;;2.38;1.50;;;;;;;3.68;51.74;100403.78;4972318;28;20058;-78
2022/05/05 00:29:09;;;;;;;2.10;1.42;;;;;;;3.71;51.91;100402.97;4956040;28;20477;-78
2022/05/05 00:31:35;;;;;;;3.20;2.03;;;;;;;3.70;52.15;100406.38;4956306;28;20050;-78
2022/05/05 00:34:01;;;;;;;2.40;1.85;;;;;;;3.55;52.35;100389.69;4972687;28;20423;-78
2022/05/05 00:36:27;;;;;;;5.03;1.67;;;;;;;3.50;52.41;100393.81;4956307;28;20065;-78
2022/05/05 00:38:53;;;;;;;2.05;1.50;;;;;;;3.41;52.59;100378.97;4972353;28;20043;-78
2022/05/05 00:41:19;;;;;;;3.58;1.52;;;;;;;3.59;52.56;100413.78;4955742;28;20039;-77
2022/05/05 00:43:45;;;;;;;2.47;1.63;;;;;;;3.56;52.42;100418.84;4973474;28;20089;-78
2022/05/05 00:46:11;;;;;;;3.10;1.80;;;;;;;3.44;52.93;100420.25;4956446;28;20046;-78
2022/05/05 00:48:37;;;;;;;2.60;1.35;;;;;;;3.45;52.45;100423.66;4969782;28;20030;-78
2022/05/05 00:51:03;;;;;;;1.98;1.50;;;;;;;3.48;52.33;100423.75;4995082;28;20035;-77
2022/05/05 00:53:29;;;;;;;2.53;1.45;;;;;;;3.51;52.59;100426.44;4966630;28;20043;-79
2022/05/05 00:55:58;;;;;;;3.45;1.30;;;;;;;3.49;52.84;100430.66;4973240;28;20216;-78
2022/05/05 00:58:27;;;;;;;1.52;0.90;;;;;;;3.40;52.28;100432.97;4973414;28;20383;-78
2022/05/05 01:00:54;;;;;;;2.90;1.40;;;;;;;3.24;52.52;100405.91;4955766;28;20689;-78
2022/05/05 01:03:21;;;;;;;1.23;0.90;;;;;;;3.34;52.13;100436.22;4971774;28;20092;-77
2022/05/05 01:05:47;;;;;;;3.60;1.50;;;;;;;3.27;52.70;100429.16;4972907;28;20034;-78
2022/05/05 01:08:13;;;;;;;1.45;1.30;;;;;;;3.14;53.23;100426.19;4956509;28;20113;-77
2022/05/05 01:10:39;;;;;;;2.00;1.38;;;;;;;3.33;53.15;100449.03;4974986;28;20049;-77
2022/05/05 01:13:05;;;;;;;1.85;1.38;;;;;;;3.29;53.01;100433.50;4975251;28;20125;-79
2022/05/05 01:15:34;;;;;;;1.85;1.30;;;;;;;3.40;53.12;100445.84;4941277;28;20434;-79
2022/05/05 01:18:00;;;;;;;1.58;1.15;;;;;;;3.35;52.89;100437.97;4974612;28;20047;-78
2022/05/05 01:20:26;;;;;;;2.25;1.50;;;;;;;3.28;52.96;100439.47;4979873;28;20058;-78
2022/05/05 01:22:52;;;;;;;4.50;2.10;;;;;;;3.32;52.54;100445.56;4972760;28;20047;-76
2022/05/05 01:28:13;;;;;;;5.13;1.90;;;;;;;3.30;53.01;100439.53;4954789;28;20050;-78
2022/05/05 01:30:40;;;;;;;4.32;1.80;;;;;;;3.39;52.76;100457.81;4971170;28;20122;-78
2022/05/05 01:33:26;;;;;;;4.40;2.17;;;;;;;3.29;53.05;100442.94;4970303;28;20049;-79
2022/05/05 01:35:54;;;;;;;4.88;1.73;;;;;;;3.41;53.17;100458.75;4939269;28;20039;-79
2022/05/05 01:38:25;;;;;;;3.22;1.70;;;;;;;3.44;53.03;100465.66;4972152;28;20061;-78
2022/05/05 01:40:51;;;;;;;1.95;1.35;;;;;;;3.45;52.98;100475.13;4971165;28;20462;-77
2022/05/05 01:43:19;;;;;;;2.38;1.58;;;;;;;3.26;53.17;100450.56;4971171;28;20046;-79
2022/05/05 01:45:46;;;;;;;3.22;1.60;;;;;;;3.44;52.87;100484.56;4970960;28;20084;-78
2022/05/05 01:48:13;;;;;;;6.95;1.50;;;;;;;3.45;53.21;100488.91;4970496;28;20053;-76
2022/05/05 01:50:39;;;;;;;3.60;1.52;;;;;;;3.47;53.05;100494.06;4954479;28;20034;-79
2022/05/05 01:53:06;;;;;;;3.05;1.50;;;;;;;3.41;52.83;100478.47;4972866;28;20053;-77
2022/05/05 01:55:33;;;;;;;5.15;1.80;;;;;;;3.34;52.91;100466.22;4955950;28;20052;-78
2022/05/05 01:58:00;;;;;;;5.72;1.90;;;;;;;3.49;53.02;100504.44;4973133;28;20039;-77
2022/05/05 02:00:27;;;;;;;3.95;1.63;;;;;;;3.36;53.10;100480.88;4973340;28;20038;-78
2022/05/05 02:02:53;;;;;;;3.70;1.55;;;;;;;3.47;52.99;100507.81;4972778;28;20555;-77
2022/05/05 02:05:19;;;;;;;4.65;2.10;;;;;;;3.37;53.40;100492.06;4954745;28;20077;-78
2022/05/05 02:07:46;;;;;;;3.72;2.20;;;;;;;3.49;53.25;100519.88;4977882;28;20039;-78
2022/05/05 02:10:15;;;;;;;4.55;1.90;;;;;;;3.42;53.39;100498.22;4992979;28;20046;-77
2022/05/05 02:12:43;;;;;;;3.67;2.08;;;;;;;3.40;53.11;100495.59;4995690;28;20069;-78
2022/05/05 02:15:11;;;;;;;3.97;2.03;;;;;;;3.53;53.18;100526.88;4993785;28;20125;-78
2022/05/05 02:17:39;;;;;;;2.75;2.20;;;;;;;3.56;53.01;100516.63;4966334;28;20050;-79
2022/05/05 02:20:06;;;;;;;4.20;2.20;;;;;;;3.65;52.96;100523.78;4960397;28;20473;-79
2022/05/05 02:22:33;;;;;;;2.50;1.77;;;;;;;3.44;53.15;100483.69;4964658;28;20043;-80
2022/05/05 02:24:59;;;;;;;3.45;1.92;;;;;;;3.74;53.28;100529.22;4992809;28;20031;-78
2022/05/05 02:27:25;;;;;;;3.55;1.98;;;;;;;3.76;52.64;100538.72;4999934;28;20047;-77
2022/05/05 02:29:55;;;;;;;4.30;2.20;;;;;;;3.79;53.17;100535.38;4956153;28;20039;-76
2022/05/05 02:32:21;;;;;;;3.97;2.22;;;;;;;3.79;53.08;100537.97;4974963;28;20414;-78
2022/05/05 02:34:46;;;;;;;5.18;1.73;;;;;;;3.78;52.88;100531.06;4975318;28;20046;-78
2022/05/05 02:39:59;;;;;;;6.35;2.20;;;;;;;3.98;52.63;100546.25;4981149;28;20050;-78
2022/05/05 02:42:26;;;;;;;4.28;2.22;;;;;;;3.91;52.98;100533.16;4975618;28;20038;-79
2022/05/05 02:44:52;;;;;;;3.95;2.13;;;;;;;3.98;52.50;100534.22;4941391;28;20038;-78
2022/05/05 02:47:18;;;;;;;3.63;2.10;;;;;;;4.16;52.21;100557.09;4973571;28;20126;-77
2022/05/05 02:49:43;;;;;;;3.13;1.92;;;;;;;4.21;52.26;100547.78;4973731;28;20042;-78
2022/05/05 02:52:09;;;;;;;3.85;2.03;;;;;;;4.35;52.11;100558.50;4973739;28;20043;-77
2022/05/05 02:54:47;;;;;;;3.63;1.85;;;;;;;4.19;52.10;100535.72;4941111;28;20454;-77
2022/05/05 02:57:14;;;;;;;2.92;1.95;;;;;;;4.34;51.81;100561.91;4957404;28;20042;-76
2022/05/05 02:59:41;;;;;;;3.67;1.98;;;;;;;4.39;52.08;100568.91;4973378;28;20128;-78
2022/05/05 03:02:07;;;;;;;3.78;2.03;;;;;;;4.40;52.02;100568.94;4974666;28;20045;-80
2022/05/05 03:04:33;;;;;;;4.30;1.92;;;;;;;4.45;51.34;100577.69;4941718;28;20053;-79
2022/05/05 03:06:59;;;;;;;4.38;2.20;;;;;;;4.45;51.35;100563.91;4973431;28;20034;-78
2022/05/05 03:09:25;;;;;;;3.70;1.98;;;;;;;4.51;51.49;100576.97;4973088;28;20061;-78
2022/05/05 03:11:51;;;;;;;3.13;2.00;;;;;;;4.51;51.53;100583.00;4956867;28;20077;-78
2022/05/05 03:14:17;;;;;;;3.40;1.95;;;;;;;4.58;51.33;100571.16;4974232;28;20094;-77
2022/05/05 03:16:43;;;;;;;2.42;1.90;;;;;;;4.67;50.97;100557.66;4973500;28;20434;-78
2022/05/05 03:19:09;;;;;;;4.63;2.60;;;;;;;4.82;50.95;100562.34;4956240;28;20079;-79
2022/05/05 03:21:36;;;;;;;3.22;2.13;;;;;;;5.02;50.75;100591.25;4973868;28;20042;-78
2022/05/05 03:24:03;;;;;;;6.57;1.90;;;;;;;4.93;50.63;100562.63;4972370;28;20149;-79
2022/05/05 03:26:29;;;;;;;4.25;2.05;;;;;;;5.08;50.51;100568.19;4934709;28;20055;-79
2022/05/05 03:28:56;;;;;;;3.38;1.95;;;;;;;5.22;50.15;100571.13;4989557;28;20113;-79
2022/05/05 03:31:22;;;;;;;3.53;2.25;;;;;;;5.50;49.93;100596.75;4975700;28;20100;-78
2022/05/05 03:33:48;;;;;;;5.03;1.85;;;;;;;5.45;49.74;100572.50;4975722;28;20061;-78
2022/05/05 03:36:14;;;;;;;3.40;2.00;;;;;;;5.65;49.71;100585.91;4993576;28;20165;-79
2022/05/05 03:38:40;;;;;;;4.65;1.90;;;;;;;5.81;49.53;100607.81;4993607;28;20069;-77
2022/05/05 03:41:06;;;;;;;3.25;1.85;;;;;;;5.69;48.96;100588.59;4993607;28;20084;-78
2022/05/05 03:43:33;;;;;;;2.53;1.77;;;;;;;5.83;48.91;100585.50;4976093;28;20050;-79
2022/05/05 03:45:59;;;;;;;2.78;1.90;;;;;;;6.19;49.27;100607.84;4994688;28;20050;-78
2022/05/05 03:48:25;;;;;;;5.65;2.10;;;;;;;6.37;48.04;100627.19;4975572;28;20038;-78
2022/05/05 03:50:51;;;;;;;4.20;2.05;;;;;;;6.53;48.36;100631.81;4976125;28;20057;-79
2022/05/05 03:53:18;;;;;;;2.78;1.90;;;;;;;6.63;48.07;100628.59;4994149;28;20038;-80
2022/05/05 03:55:44;;;;;;;4.63;2.13;;;;;;;6.83;47.32;100625.53;4995265;28;20038;-79
2022/05/05 03:58:10;;;;;;;3.17;1.98;;;;;;;6.89;47.14;100622.19;4963148;28;20049;-79
2022/05/05 04:00:36;;;;;;;4.35;1.98;;;;;;;7.01;46.96;100624.13;4998567;28;20403;-78
2022/05/05 04:05:48;;;;;;;5.15;2.03;;;;;;;7.22;46.71;100601.22;4996493;28;20529;-78
2022/05/05 04:08:14;;;;;;;2.30;1.92;;;;;;;7.35;46.07;100611.81;4994418;28;20038;-79
2022/05/05 04:10:40;;;;;;;3.13;2.00;;;;;;;7.59;46.50;100639.00;4993334;28;20426;-77
2022/05/05 04:13:06;;;;;;;2.67;2.10;;;;;;;7.68;45.53;100623.56;4993603;28;20065;-78
2022/05/05 04:15:33;;;;;;;3.88;1.88;;;;;;;8.01;45.31;100647.41;4975832;28;20081;-78
2022/05/05 04:18:00;;;;;;;3.67;1.90;;;;;;;7.88;44.78;100590.22;4975309;28;20041;-77
2022/05/05 04:20:27;;;;;;;4.53;2.08;;;;;;;8.15;44.42;100645.91;4975330;28;20498;-78
2022/05/05 04:22:53;;;;;;;4.55;1.88;;;;;;;8.07;44.53;100616.41;4993184;28;20084;-78
2022/05/05 04:25:19;;;;;;;5.40;1.98;;;;;;;8.28;44.45;100640.03;4959027;28;20394;-78
2022/05/05 04:27:46;;;;;;;4.28;2.00;;;;;;;8.52;44.35;100645.56;4992959;28;20045;-79
2022/05/05 04:30:16;;;;;;;2.45;2.00;;;;;;;8.68;43.53;100657.00;4943035;28;20058;-80
2022/05/05 04:32:43;;;;;;;4.15;2.03;;;;;;;8.71;43.78;100642.38;4975685;28;20046;-79
2022/05/05 04:35:13;;;;;;;2.97;2.15;;;;;;;8.87;43.05;100635.59;4942885;28;20422;-80
2022/05/05 04:37:39;;;;;;;2.78;1.60;;;;;;;9.03;42.59;100618.47;4974797;28;20042;-79
2022/05/05 04:40:10;;;;;;;3.55;1.70;;;;;;;9.51;42.53;100657.03;4974689;28;20045;-80
2022/05/05 04:42:38;;;;;;;3.05;1.90;;;;;;;9.34;41.95;100633.50;4976003;28;20038;-81
2022/05/05 04:45:05;;;;;;;4.35;2.55;;;;;;;9.73;41.51;100665.88;4975466;28;20048;-81
2022/05/05 04:47:34;;;;;;;2.70;1.70;;;;;;;9.93;41.00;100665.19;4975021;28;20038;-80
2022/05/05 04:50:00;;;;;;;5.07;1.98;;;;;;;9.84;40.96;100649.50;4959012;28;20096;-80
2022/05/05 04:52:27;;;;;;;3.47;1.70;;;;;;;10.09;40.91;100651.44;4976213;28;20038;-80
2022/05/05 04:54:54;;;;;;;3.30;1.60;;;;;;;10.34;40.26;100668.91;4993430;28;20046;-78
2022/05/05 04:57:20;;;;;;;2.65;1.70;;;;;;;10.43;39.92;100681.13;4977829;28;20108;-79
2022/05/05 04:59:46;;;;;;;3.40;1.70;;;;;;;10.11;39.60;100630.63;4975598;28;20052;-79
2022/05/05 05:02:12;;;;;;;2.10;1.67;;;;;;;10.04;39.17;100611.53;4992804;28;20046;-80
2022/05/05 05:04:38;;;;;;;4.35;1.80;;;;;;;10.52;39.02;100684.66;4943176;28;20044;-80
2022/05/05 05:07:04;;;;;;;4.28;1.42;;;;;;;10.60;38.49;100673.44;4974898;28;20038;-79
2022/05/05 05:09:30;;;;;;;3.17;1.63;;;;;;;10.70;38.46;100652.66;4975246;28;20057;-79
2022/05/05 05:11:56;;;;;;;2.03;1.52;;;;;;;11.23;37.80;100686.69;4992920;28;20034;-80
2022/05/05 05:14:22;;;;;;;3.45;1.67;;;;;;;11.63;36.92;100670.22;4993330;28;20653;-80
2022/05/05 05:16:49;;;;;;;1.63;1.40;;;;;;;12.07;36.44;100688.53;4975543;28;20061;-79
2022/05/05 05:19:15;;;;;;;3.88;1.80;;;;;;;12.34;36.15;100685.88;4994645;28;20038;-78
2022/05/05 05:21:41;;;;;;;1.75;1.45;;;;;;;12.63;35.37;100684.94;4963752;28;20426;-79
2022/05/05 05:24:08;;;;;;;3.88;1.40;;;;;;;13.02;35.20;100686.53;4975247;28;20073;-79
2022/05/05 05:26:34;;;;;;;4.07;1.45;;;;;;;13.62;34.46;100680.09;4958465;28;20674;-80
2022/05/05 05:29:01;;;;;;;3.60;1.48;;;;;;;14.86;33.90;100677.13;4992035;28;20052;-83
2022/05/05 05:31:28;;;;;;;2.10;1.20;;;;;;;17.27;31.73;100687.00;4959136;28;20050;-80
2022/05/05 05:33:54;;;;;;;1.50;1.17;;;;;;;19.46;28.77;100677.66;4960326;28;20104;-79
2022/05/05 05:36:20;;;;;;;5.22;1.42;;;;;;;21.29;26.58;100687.97;4974850;28;20046;-80
2022/05/05 05:38:46;;;;;;;1.38;1.10;;;;;;;22.65;24.59;100693.81;4996077;28;20037;-80
2022/05/05 05:41:12;;;;;;;3.33;1.60;;;;;;;23.56;23.74;100676.31;4980386;28;20047;-82
2022/05/05 05:43:39;;;;;;;4.10;1.95;;;;;;;24.90;22.46;100691.59;5002350;28;20046;-81
2022/05/05 05:46:05;;;;;;;3.70;1.48;;;;;;;25.70;20.75;100672.91;4988059;28;20038;-81
2022/05/05 05:48:31;;;;;;;8.02;3.75;;;;;;;24.69;20.08;100695.38;4975267;28;20057;-81
2022/05/05 05:50:59;;;;;;;5.55;2.42;;;;;;;25.24;20.37;100679.06;5004981;28;20062;-81
2022/05/05 05:53:25;;;;;;;8.18;4.40;;;;;;;25.68;19.50;100679.28;4960879;28;20038;-82
2022/05/05 05:55:51;;;;;;;4.22;1.25;;;;;;;26.55;17.63;100664.28;4974465;28;20410;-80
2022/05/05 05:58:17;;;;;;;5.18;2.55;;;;;;;25.95;17.88;100699.91;4973436;28;20180;-81
2022/05/05 06:00:44;;;;;;;3.30;1.85;;;;;;;26.53;17.63;100670.69;4991412;28;20386;-82
2022/05/05 06:05:54;;;;;;;15.00;9.95;;;;;;;28.21;15.96;100661.53;4990896;28;20577;-82
2022/05/05 06:08:20;;;;;;;7.93;3.70;;;;;;;28.88;14.90;100691.69;4994371;28;20129;-81
2022/05/05 06:10:46;;;;;;;9.43;5.85;;;;;;;28.95;14.56;100659.97;4960073;28;20044;-82
2022/05/05 06:13:19;;;;;;;1.70;1.10;;;;;;;29.67;13.88;100702.03;4977990;28;20121;-82
2022/05/05 06:15:45;;;;;;;9.85;7.45;;;;;;;29.73;13.75;100561.25;4974854;28;20062;-81
2022/05/05 06:18:11;;;;;;;8.45;4.60;;;;;;;32.03;13.02;100699.44;4977169;28;20045;-81
2022/05/05 06:20:49;;;;;;;15.85;12.98;;;;;;;32.39;11.96;100569.88;4976560;28;20086;-82
2022/05/05 06:23:18;;;;;;;10.93;5.78;;;;;;;33.49;11.49;100692.91;4974835;28;20189;-82
2022/05/05 06:25:52;;;;;;;19.20;13.35;;;;;;;33.04;11.14;100607.16;4974858;28;20057;-81
2022/05/05 06:28:18;;;;;;;6.53;3.95;;;;;;;33.88;10.79;100643.44;4990368;28;20050;-83
2022/05/05 06:30:44;;;;;;;5.13;3.15;;;;;;;34.25;10.28;100687.69;4991096;28;20038;-82
2022/05/05 06:33:10;;;;;;;9.65;6.75;;;;;;;33.99;10.19;100676.69;4974812;28;20050;-81
2022/05/05 06:35:41;;;;;;;17.15;12.95;;;;;;;32.56;10.95;100714.63;4973327;28;20042;-83
2022/05/05 06:38:10;;;;;;;4.15;3.28;;;;;;;32.75;10.50;100607.94;4991996;28;20112;-82
2022/05/05 06:40:36;;;;;;;11.98;8.23;;;;;;;33.17;10.18;100668.88;4992796;28;20049;-81
2022/05/05 06:43:04;;;;;;;5.22;3.72;;;;;;;33.49;10.22;100673.16;4974262;28;20464;-81
2022/05/05 06:45:37;;;;;;;5.53;2.80;;;;;;;34.68;9.44;100701.63;4957895;28;20038;-83
2022/05/05 06:48:14;;;;;;;3.58;1.65;;;;;;;34.21;9.29;100581.84;4974188;28;20052;-83
2022/05/05 06:50:40;;;;;;;4.63;1.75;;;;;;;33.62;9.26;100641.38;4958613;28;20093;-81
2022/05/05 06:53:06;;;;;;;5.25;1.23;;;;;;;32.98;8.65;100678.63;4975886;28;20049;-81
2022/05/05 06:55:32;;;;;;;7.53;2.47;;;;;;;32.57;9.48;100718.16;4994683;28;20092;-82
2022/05/05 06:57:58;;;;;;;5.47;4.22;;;;;;;33.32;9.12;100728.63;4977352;28;20065;-82
2022/05/05 07:01:51;;;;;;;3.72;2.15;;;;;;;34.84;8.27;100691.00;4995047;28;20095;-82
2022/05/05 07:03:18;;;;;;;6.65;2.60;;;;;;;35.66;7.86;100725.34;4977175;28;20053;-82
2022/05/05 07:05:44;;;;;;;4.22;1.40;;;;;;;34.85;8.49;100718.91;4977035;28;20496;-81
2022/05/05 07:08:11;;;;;;;3.97;1.40;;;;;;;34.77;8.03;100703.41;4961064;28;20100;-81
2022/05/05 07:10:55;;;;;;;3.83;1.50;;;;;;;35.17;7.88;100719.47;4977277;28;20130;-81
2022/05/05 07:13:24;;;;;;;2.80;1.73;;;;;;;35.21;7.60;100702.75;4977696;28;20048;-82
2022/05/05 07:15:51;;;;;;;4.63;2.35;;;;;;;35.10;7.41;100600.22;4983994;28;20113;-82
2022/05/05 07:18:18;;;;;;;3.22;1.50;;;;;;;36.83;7.28;100702.59;4992688;28;20046;-82
2022/05/05 07:20:47;;;;;;;4.55;1.65;;;;;;;36.75;7.32;100706.97;4997396;28;20044;-84
2022/05/05 07:23:20;;;;;;;5.47;1.73;;;;;;;37.38;6.96;100729.19;4963576;28;20050;-83
2022/05/05 07:25:49;;;;;;;4.18;1.92;;;;;;;38.20;6.45;100653.31;4949059;28;20050;-80
2022/05/05 07:28:16;;;;;;;2.40;1.05;;;;;;;38.71;6.01;100585.00;4982559;28;20145;-82
2022/05/05 07:30:44;;;;;;;3.53;1.13;;;;;;;39.10;5.92;100649.34;4966616;28;20521;-82
2022/05/05 07:33:13;;;;;;;2.63;1.25;;;;;;;39.67;5.85;100730.72;4982606;28;20046;-84
2022/05/05 07:35:47;;;;;;;1.77;1.23;;;;;;;39.73;5.69;100724.56;4982822;28;20068;-83
2022/05/05 07:38:13;;;;;;;2.85;1.30;;;;;;;38.96;5.68;100709.94;4978075;28;20564;-84
2022/05/05 07:41:04;;;;;;;3.15;1.38;;;;;;;38.92;5.71;100716.75;4995261;28;20038;-84
2022/05/05 07:43:30;;;;;;;2.85;1.23;;;;;;;39.80;5.50;100709.22;4991491;28;20474;-82
2022/05/05 07:45:56;;;;;;;3.95;1.23;;;;;;;40.56;5.33;100691.88;4978378;28;20065;-80
2022/05/05 07:48:25;;;;;;;2.17;1.33;;;;;;;40.75;5.43;100652.28;4963290;28;20097;-83
2022/05/05 07:50:58;;;;;;;2.85;1.55;;;;;;;40.42;4.87;100619.16;4977558;28;20045;-79
2022/05/05 07:53:25;;;;;;;2.65;1.15;;;;;;;39.97;5.26;100730.84;4996034;28;20053;-81
2022/05/05 07:55:50;;;;;;;3.33;1.25;;;;;;;39.54;4.87;100663.28;4978220;28;20042;-83
2022/05/05 07:58:20;;;;;;;2.97;1.27;;;;;;;39.74;4.93;100663.63;4994899;28;20108;-80
2022/05/05 08:00:46;;;;;;;3.92;1.30;;;;;;;40.44;4.66;100726.09;4977230;28;20102;-80
2022/05/05 08:03:20;;;;;;;3.35;1.52;;;;;;;40.78;4.80;100670.97;4978151;28;20046;-82
2022/05/05 08:05:49;;;;;;;2.55;1.30;;;;;;;39.39;4.50;100696.75;4975351;28;20038;-82
2022/05/05 08:08:15;;;;;;;2.20;1.45;;;;;;;39.17;5.20;100731.91;4944179;28;20072;-82
2022/05/05 08:10:41;;;;;;;3.92;1.30;;;;;;;39.44;4.84;100678.03;4995507;28;20498;-81
2022/05/05 08:13:19;;;;;;;1.48;1.13;;;;;;;41.24;4.64;100724.41;4977572;28;20049;-81
2022/05/05 08:15:45;;;;;;;4.43;1.20;;;;;;;41.76;4.39;100718.78;4960275;28;20501;-82
2022/05/05 08:18:14;;;;;;;3.33;1.20;;;;;;;41.65;4.55;100725.63;4993280;28;20050;-80
2022/05/05 08:20:40;;;;;;;1.40;1.30;;;;;;;41.00;4.16;100717.38;4993639;28;20066;-83
2022/05/05 08:23:06;;;;;;;2.15;1.20;;;;;;;40.33;4.23;100670.19;4959937;28;20054;-85
2022/05/05 08:28:36;;;;;;;;;;;;;;;40.79;4.38;100727.22;4977895;28;20054;-84
2022/05/05 08:31:06;;;;;;;4.15;1.30;;;;;;;40.79;4.50;100680.84;4982191;28;19918;-89
2022/05/05 08:33:35;;;;;;;8.98;4.88;;;;;;;41.64;4.09;100704.81;4972261;28;20077;-86
2022/05/05 08:36:04;;;;;;;5.45;2.47;;;;;;;40.86;4.07;100620.94;4986318;28;20088;-84
2022/05/05 08:38:36;;;;;;;13.35;6.78;;;;;;;39.99;4.67;100637.00;4972380;28;20050;-84
2022/05/05 08:41:03;;;;;;;16.77;12.88;;;;;;;40.47;4.61;100688.44;4994869;28;20145;-83
2022/05/05 08:43:32;;;;;;;10.05;6.10;;;;;;;41.37;4.04;100718.25;4959646;28;20195;-84
2022/05/05 08:45:58;;;;;;;5.72;2.60;;;;;;;41.37;4.37;100699.13;4976507;28;20034;-85
2022/05/05 08:48:26;;;;;;;3.20;1.33;;;;;;;41.57;4.12;100722.19;4976769;28;20050;-83
2022/05/05 08:50:56;;;;;;;4.05;2.17;;;;;;;41.63;4.05;100730.44;5008932;28;20054;-83
2022/05/05 08:53:26;;;;;;;1.88;1.38;;;;;;;40.90;4.58;100735.97;4997096;28;20145;-83
2022/05/05 08:55:51;;;;;;;;;;;;;;;40.44;4.43;100721.50;4968182;28;20117;-84
2022/05/05 08:58:17;;;;;;;2.72;1.40;;;;;;;40.41;4.33;100694.63;4976718;28;20369;-85
2022/05/05 09:00:43;;;;;;;2.60;1.50;;;;;;;39.50;4.67;100642.94;4944775;28;20045;-85
2022/05/05 09:03:10;;;;;;;3.80;1.58;;;;;;;39.06;4.80;100639.00;4960334;28;20127;-88
2022/05/05 09:05:42;;;;;;;6.32;1.50;;;;;;;39.65;4.77;100720.03;4960177;28;20080;-85
2022/05/05 09:08:27;;;;;;;1.92;1.40;;;;;;;40.40;4.38;100724.78;4976369;28;20625;-84
2022/05/05 09:10:59;;;;;;;3.80;2.83;;;;;;;40.55;4.13;100722.91;4979285;28;20045;-84
2022/05/05 09:13:28;;;;;;;2.88;1.90;;;;;;;39.50;4.38;100602.94;4970272;28;20046;-83
2022/05/05 09:15:55;;;;;;;5.03;1.40;;;;;;;40.21;4.21;100722.44;4997221;28;20065;-83
2022/05/05 09:18:30;;;;;;;4.90;1.65;;;;;;;39.02;4.38;100649.41;4989991;28;20478;-82
2022/05/05 09:20:58;;;;;;;1.98;1.30;;;;;;;40.01;4.18;100680.41;4961164;28;20042;-82
2022/05/05 09:26:28;;;;;;;3.15;1.60;;;;;;;39.37;4.48;100649.84;4975715;28;20151;-82
2022/05/05 09:28:55;;;;;;;3.45;1.40;;;;;;;39.76;4.16;100719.63;4976942;28;20046;-86
2022/05/05 09:31:22;;;;;;;1.70;1.50;;;;;;;39.83;4.27;100708.84;4981938;28;20058;-85
2022/05/05 09:33:48;;;;;;;3.40;1.30;;;;;;;39.84;4.24;100656.06;4994670;28;20081;-86
2022/05/05 09:36:16;;;;;;;2.47;1.50;;;;;;;39.47;4.20;100619.66;4993707;28;20069;-87
2022/05/05 09:38:59;;;;;;;7.47;1.65;;;;;;;38.80;4.17;100683.66;4986335;28;20203;-83
2022/05/05 09:41:33;;;;;;;6.03;4.20;;;;;;;38.10;4.47;100597.31;4961081;28;20406;-83
2022/05/05 09:44:12;;;;;;;36.63;31.88;;;;;;;38.61;4.07;100698.56;4960474;28;20046;-86
2022/05/05 09:46:39;;;;;;;76.47;61.72;;;;;;;38.75;4.46;100705.09;4975326;28;20035;-84
2022/05/05 09:49:18;;;;;;;48.90;38.80;;;;;;;38.04;5.03;100665.06;4976641;28;20049;-84
2022/05/05 09:57:39;;;;;;;15.15;11.45;;;;;;;38.39;4.55;100636.63;4977689;28;20502;-83
2022/05/05 09:57:40;;;;;;;24.85;20.30;;;;;;;39.02;4.98;100690.19;4996460;28;20046;-85
2022/05/05 10:06:01;;;;;;;22.80;19.10;;;;;;;37.98;5.27;100719.06;4984706;28;20217;-84
2022/05/05 10:08:45;;;;;;;5.10;3.35;;;;;;;36.52;5.65;100676.03;4969269;28;20058;-83
2022/05/05 10:11:15;;;;;;;23.23;16.42;;;;;;;36.58;5.38;100700.63;4967406;28;20137;-84
2022/05/05 10:13:43;;;;;;;;;;;;;;;36.12;6.17;100705.41;4984775;28;20084;-81
2022/05/05 10:16:09;;;;;;;4.38;1.95;;;;;;;34.92;5.85;100579.44;4960555;28;19928;-84
2022/05/05 10:18:38;;;;;;;11.38;6.97;;;;;;;34.37;6.25;100664.91;4945501;28;20077;-84
2022/05/05 10:21:27;;;;;;;17.52;10.57;;;;;;;34.49;5.92;100721.47;4947094;28;20195;-82
2022/05/05 10:24:19;;;;;;;10.75;5.75;;;;;;;34.20;6.47;100717.00;4979952;28;20073;-86
2022/05/05 10:26:50;;;;;;;11.68;6.45;;;;;;;33.56;6.32;100598.78;5003032;28;20034;-84
2022/05/05 10:29:31;;;;;;;9.55;5.72;;;;;;;33.49;6.60;100674.03;5016052;28;20022;-85
2022/05/05 10:32:13;;;;;;;3.00;2.10;;;;;;;31.77;6.83;100685.53;4974906;28;20042;-84
2022/05/05 10:34:41;;;;;;;3.38;1.95;;;;;;;29.59;7.45;100720.50;4982930;28;20106;-88
2022/05/05 10:37:10;;;;;;;3.17;1.50;;;;;;;27.39;8.01;100655.47;4996369;28;20053;-84
2022/05/05 10:39:59;;;;;;;5.10;1.90;;;;;;;26.07;8.64;100732.97;4964052;28;20054;-84
2022/05/05 10:42:33;;;;;;;8.95;2.58;;;;;;;24.86;9.49;100735.28;4967312;28;20042;-84
2022/05/05 10:45:16;;;;;;;10.13;4.70;;;;;;;23.65;10.26;100701.53;4988573;28;20046;-87
2022/05/05 10:50:42;;;;;;;4.07;2.22;;;;;;;21.87;11.52;100638.88;4980582;28;20685;-83
2022/05/05 10:53:25;;;;;;;9.80;4.95;;;;;;;20.83;12.15;100636.88;4978183;28;20417;-84
2022/05/05 10:55:51;;;;;;;4.32;2.25;;;;;;;20.87;12.07;100752.16;4945404;28;20041;-85
2022/05/05 10:58:55;;;;;;;6.18;2.35;;;;;;;20.42;12.34;100754.59;4961161;28;20050;-85
2022/05/05 11:01:22;;;;;;;6.15;2.67;;;;;;;19.88;12.76;100768.75;4977796;28;20054;-88
2022/05/05 11:04:05;;;;;;;3.50;1.80;;;;;;;19.61;12.95;100753.72;4931191;28;20038;-85
2022/05/05 11:07:15;;;;;;;4.68;2.13;;;;;;;19.01;13.27;100763.44;4997239;28;20042;-86
2022/05/05 11:09:50;;;;;;;5.13;2.40;;;;;;;18.42;13.83;100772.91;4946778;28;20044;-87
2022/05/05 11:12:17;;;;;;;2.42;1.73;;;;;;;16.46;14.11;100488.13;4947233;28;20041;-88
2022/05/05 11:23:57;;;;;;;4.05;1.90;;;;;;;16.47;14.79;100647.47;4979513;28;20062;-86
2022/05/05 11:26:53;;;;;;;1.75;1.50;;;;;;;17.05;15.24;100778.63;4980363;28;20113;-84
2022/05/05 11:34:39;;;;;;;2.58;1.90;;;;;;;15.45;15.61;100675.47;4853311;29;20051;-84
2022/05/05 11:37:23;;;;;;;2.97;1.92;;;;;;;14.87;16.09;100623.84;4900544;29;20100;-85
2022/05/05 11:39:49;;;;;;;5.47;2.22;;;;;;;14.45;16.71;100535.31;4950396;28;20062;-84
2022/05/05 11:42:15;;;;;;;3.83;2.05;;;;;;;15.41;16.94;100707.84;4938541;29;20043;-83
2022/05/05 11:44:43;;;;;;;10.20;1.88;;;;;;;14.48;16.96;100578.94;4938885;29;20107;-84
2022/05/05 11:47:12;;;;;;;3.83;1.42;;;;;;;14.63;17.02;100624.13;4957706;29;20043;-81
2022/05/05 11:49:43;;;;;;;2.47;1.55;;;;;;;15.01;16.96;100691.78;4925617;29;20039;-82
2022/05/05 11:52:14;;;;;;;5.40;1.75;;;;;;;14.59;16.89;100644.25;4958519;29;20103;-82
2022/05/05 11:54:40;;;;;;;2.67;1.70;;;;;;;14.48;17.13;100643.50;4943376;29;20046;-83
2022/05/05 11:57:07;;;;;;;1.77;1.42;;;;;;;14.81;16.97;100713.00;4950811;29;20067;-84
2022/05/05 12:02:21;;;;;;;3.25;1.38;;;;;;;14.40;17.40;100673.28;4969546;28;20047;-84
2022/05/05 12:04:51;;;;;;;2.40;1.48;;;;;;;14.24;17.62;100674.31;4978348;28;20029;-86
2022/05/05 12:07:22;;;;;;;3.28;1.50;;;;;;;14.68;17.57;100748.94;4976085;28;20051;-84
2022/05/05 12:09:56;;;;;;;4.35;1.77;;;;;;;13.51;17.76;100610.44;4955686;29;20460;-86
2022/05/05 12:12:25;;;;;;;3.58;1.42;;;;;;;14.39;17.76;100759.69;4959055;29;20065;-87
2022/05/05 12:15:01;;;;;;;1.75;1.27;;;;;;;13.45;17.77;100620.09;4925365;29;20045;-84
2022/05/05 12:17:39;;;;;;;3.20;1.48;;;;;;;14.25;17.91;100775.50;4939656;29;20114;-87
2022/05/05 12:20:07;;;;;;;2.35;1.27;;;;;;;13.95;17.79;100751.34;4955475;29;20051;-83
2022/05/05 12:22:44;;;;;;;2.60;1.83;;;;;;;14.00;17.85;100768.75;4960379;29;20039;-82
2022/05/05 12:25:15;;;;;;;4.18;1.50;;;;;;;12.96;17.95;100591.63;4939911;29;20465;-83
2022/05/05 12:27:47;;;;;;;2.15;1.35;;;;;;;13.86;17.82;100742.69;4946431;28;20495;-85
2022/05/05 12:30:36;;;;;;;3.05;1.50;;;;;;;12.69;18.41;100536.97;4961213;28;20050;-84